Time;durP1;ratioP1;P1;durP2;ratioP2;P2;SDS_P1;SDS_P2;PMS_P1;PMS_P2;Temp;Humidity;BMP_temperature;BMP_pressure;BME280_temperature;BME280_humidity;BME280_pressure;Samples;Min_cycle;Max_cycle;Signal;HPM_P1;HPM_P2
2023/03/10 00:01:41;;;;;;;37.97;4.35;;;9.50;99.90;;;;;;5107384;28;20074;-46
2023/03/10 00:04:09;;;;;;;33.33;4.38;;;9.50;99.90;;;;;;5113432;28;20023;-45
2023/03/10 00:06:34;;;;;;;30.13;4.43;;;9.50;99.90;;;;;;5113310;28;20479;-48
2023/03/10 00:09:00;;;;;;;33.88;4.65;;;9.40;99.90;;;;;;5112773;28;20039;-51
2023/03/10 00:11:27;;;;;;;33.85;4.13;;;9.40;99.90;;;;;;5113179;28;20475;-52
2023/03/10 00:13:52;;;;;;;25.95;4.63;;;9.40;99.90;;;;;;5112939;28;20032;-44
2023/03/10 00:16:24;;;;;;;30.90;4.35;;;9.40;99.90;;;;;;5113137;28;20022;-47
2023/03/10 00:18:51;;;;;;;34.22;4.15;;;9.40;99.90;;;;;;5113022;28;20487;-47
2023/03/10 00:21:25;;;;;;;32.35;4.13;;;9.40;99.90;;;;;;5112948;28;20497;-44
2023/03/10 00:23:51;;;;;;;37.80;4.88;;;9.40;99.90;;;;;;5112849;28;20026;-44
2023/03/10 00:26:19;;;;;;;30.42;3.63;;;9.40;99.90;;;;;;5112913;28;20027;-44
2023/03/10 00:28:45;;;;;;;27.58;3.45;;;9.40;99.90;;;;;;5113044;27;20123;-47
2023/03/10 00:31:14;;;;;;;25.52;3.25;;;9.40;99.90;;;;;;5112309;28;20035;-43
2023/03/10 00:33:40;;;;;;;19.38;3.22;;;9.30;99.90;;;;;;5112942;28;20052;-44
2023/03/10 00:36:07;;;;;;;34.28;4.03;;;9.30;99.90;;;;;;5112453;28;20572;-44
2023/03/10 00:38:35;;;;;;;23.38;2.50;;;9.30;99.90;;;;;;5111402;28;20463;-44
2023/03/10 00:41:06;;;;;;;23.00;3.50;;;9.30;99.90;;;;;;5111345;28;20015;-45
2023/03/10 00:43:32;;;;;;;26.70;2.88;;;9.40;99.90;;;;;;5112518;28;20534;-44
2023/03/10 00:45:58;;;;;;;17.55;3.20;;;9.30;99.90;;;;;;5112450;28;20063;-48
2023/03/10 00:48:23;;;;;;;16.02;2.70;;;9.30;99.90;;;;;;5112606;28;20058;-48
2023/03/10 00:50:49;;;;;;;22.48;3.10;;;9.40;99.90;;;;;;5112571;28;20024;-48
2023/03/10 00:53:15;;;;;;;22.88;2.97;;;9.30;99.90;;;;;;5121649;27;20019;-47
2023/03/10 00:55:41;;;;;;;23.23;2.90;;;9.30;99.90;;;;;;5112430;27;20031;-54
2023/03/10 00:58:07;;;;;;;19.75;2.72;;;9.30;99.90;;;;;;5099279;28;20020;-47
2023/03/10 01:00:32;;;;;;;21.95;2.60;;;9.30;99.90;;;;;;5111206;28;20027;-46
2023/03/10 01:02:58;;;;;;;20.88;2.53;;;9.30;99.90;;;;;;5112280;28;20387;-54
2023/03/10 01:05:24;;;;;;;25.38;3.42;;;9.30;99.90;;;;;;5093087;28;20032;-47
2023/03/10 01:07:50;;;;;;;24.90;3.55;;;9.30;99.90;;;;;;5112340;27;20027;-50
2023/03/10 01:10:17;;;;;;;22.02;2.83;;;9.30;99.90;;;;;;5111960;28;20040;-49
2023/03/10 01:12:42;;;;;;;25.80;3.40;;;9.30;99.90;;;;;;5112199;28;20107;-47
2023/03/10 01:15:10;;;;;;;27.33;4.20;;;9.30;99.90;;;;;;5111651;28;20098;-44
2023/03/10 01:17:36;;;;;;;34.85;4.78;;;9.30;99.90;;;;;;5111962;28;20483;-45
2023/03/10 01:20:05;;;;;;;24.13;3.60;;;9.30;99.90;;;;;;5111197;28;20091;-44
2023/03/10 01:22:31;;;;;;;39.65;4.70;;;9.30;99.90;;;;;;5115154;27;20027;-44
2023/03/10 01:24:56;;;;;;;29.83;4.82;;;9.30;99.90;;;;;;5121594;27;20487;-43
2023/03/10 01:27:22;;;;;;;32.63;5.15;;;9.30;99.90;;;;;;5110350;28;20032;-43
2023/03/10 01:29:47;;;;;;;32.10;4.40;;;9.30;99.90;;;;;;5111937;28;20032;-46
2023/03/10 01:32:13;;;;;;;34.42;5.00;;;9.30;99.90;;;;;;5111746;28;20016;-46
2023/03/10 01:34:38;;;;;;;20.42;3.45;;;9.30;99.90;;;;;;5111744;28;20103;-45
2023/03/10 01:37:04;;;;;;;22.98;3.25;;;9.20;99.90;;;;;;5111447;28;20104;-50
2023/03/10 01:39:30;;;;;;;17.27;2.83;;;9.20;99.90;;;;;;5111516;28;20442;-48
2023/03/10 01:41:56;;;;;;;23.85;3.17;;;9.20;99.90;;;;;;5110107;28;20336;-45
2023/03/10 01:44:21;;;;;;;24.45;3.47;;;9.20;99.90;;;;;;5111444;28;20027;-48
2023/03/10 01:46:52;;;;;;;19.17;3.03;;;9.20;99.90;;;;;;5111687;28;20106;-48
2023/03/10 01:49:35;;;;;;;17.60;2.53;;;9.20;99.90;;;;;;5110860;28;20043;-52
2023/03/10 01:52:09;;;;;;;18.10;2.33;;;9.20;99.90;;;;;;5114629;27;20023;-50
2023/03/10 01:54:45;;;;;;;19.48;2.70;;;9.20;99.90;;;;;;5119716;27;20062;-51
2023/03/10 01:57:14;;;;;;;15.93;2.65;;;9.20;99.90;;;;;;5099866;28;20020;-47
2023/03/10 01:59:40;;;;;;;26.90;3.30;;;9.20;99.90;;;;;;5102363;28;20391;-45
2023/03/10 02:02:07;;;;;;;15.70;2.92;;;9.10;99.90;;;;;;5110892;28;20114;-45
2023/03/10 02:04:37;;;;;;;21.90;3.28;;;9.20;99.90;;;;;;5110718;28;20036;-49
2023/03/10 02:07:04;;;;;;;21.33;2.88;;;9.20;99.90;;;;;;5111122;28;20463;-48
2023/03/10 02:09:32;;;;;;;23.02;3.00;;;9.20;99.90;;;;;;5111137;28;20042;-49
2023/03/10 02:11:59;;;;;;;19.58;3.45;;;9.20;99.90;;;;;;5110680;28;20448;-53
2023/03/10 02:14:25;;;;;;;25.23;2.92;;;9.10;99.90;;;;;;5111133;28;20238;-45
2023/03/10 02:16:50;;;;;;;25.50;3.17;;;9.20;99.90;;;;;;5111073;28;20472;-44
2023/03/10 02:19:34;;;;;;;23.48;3.13;;;9.10;99.90;;;;;;5110791;28;20076;-50
2023/03/10 02:22:06;;;;;;;16.52;2.40;;;9.20;99.90;;;;;;5113655;28;20031;-45
2023/03/10 02:24:45;;;;;;;16.27;2.33;;;9.20;99.90;;;;;;5097154;28;20035;-48
2023/03/10 02:27:14;;;;;;;19.80;2.90;;;9.20;99.90;;;;;;5110529;28;20077;-47
2023/03/10 02:29:45;;;;;;;17.77;2.13;;;9.20;99.90;;;;;;5110884;28;20438;-45
2023/03/10 02:32:12;;;;;;;15.70;2.97;;;9.20;99.90;;;;;;5117124;28;20016;-54
2023/03/10 02:34:38;;;;;;;11.98;1.70;;;9.20;99.90;;;;;;5117567;27;20540;-48
2023/03/10 02:37:04;;;;;;;19.02;2.10;;;9.20;99.90;;;;;;5117671;28;20236;-45
2023/03/10 02:39:29;;;;;;;8.48;1.40;;;9.20;99.90;;;;;;5117721;27;20552;-44
2023/03/10 02:41:55;;;;;;;11.27;1.95;;;9.20;99.90;;;;;;5117547;27;20383;-48
2023/03/10 02:44:23;;;;;;;10.05;2.00;;;9.20;99.90;;;;;;5117391;27;20042;-44
2023/03/10 02:46:49;;;;;;;15.70;2.30;;;9.20;99.90;;;;;;5117680;27;20433;-48
2023/03/10 02:49:17;;;;;;;14.45;2.08;;;9.20;99.90;;;;;;5117436;27;20512;-49
2023/03/10 02:51:45;;;;;;;15.23;1.92;;;9.20;99.90;;;;;;5103255;27;20016;-44
2023/03/10 02:54:12;;;;;;;8.40;1.60;;;9.20;99.90;;;;;;5136940;27;20054;-45
2023/03/10 02:56:38;;;;;;;6.60;2.13;;;9.20;99.90;;;;;;5117973;27;20023;-48
2023/03/10 02:59:05;;;;;;;6.15;1.10;;;9.20;99.90;;;;;;5103517;28;20536;-45
2023/03/10 03:01:31;;;;;;;7.25;1.60;;;9.20;99.90;;;;;;5116142;28;20039;-47
2023/03/10 03:03:57;;;;;;;8.77;1.58;;;9.20;99.90;;;;;;5116058;28;20118;-46
2023/03/10 03:06:23;;;;;;;6.90;1.10;;;9.20;99.90;;;;;;5117186;27;20087;-47
2023/03/10 03:08:49;;;;;;;6.80;1.67;;;9.20;99.90;;;;;;5116582;27;20031;-47
2023/03/10 03:11:15;;;;;;;9.02;1.40;;;9.20;99.90;;;;;;5117293;27;20020;-44
2023/03/10 03:13:41;;;;;;;12.95;1.90;;;9.30;99.90;;;;;;5116743;28;20064;-46
2023/03/10 03:16:08;;;;;;;12.48;1.30;;;9.20;99.90;;;;;;5117330;27;20022;-49
2023/03/10 03:18:35;;;;;;;7.07;1.17;;;9.20;99.90;;;;;;5117416;27;20022;-48
2023/03/10 03:21:10;;;;;;;7.90;1.55;;;9.20;99.90;;;;;;5117193;27;20455;-45
2023/03/10 03:23:37;;;;;;;13.13;1.95;;;9.20;99.90;;;;;;5126113;27;20403;-51
2023/03/10 03:26:03;;;;;;;9.68;1.90;;;9.20;99.90;;;;;;5104616;27;20062;-46
2023/03/10 03:28:29;;;;;;;13.82;2.03;;;9.20;99.90;;;;;;5099813;28;20466;-47
2023/03/10 03:30:54;;;;;;;12.93;2.97;;;9.20;99.90;;;;;;5103943;28;20114;-47
2023/03/10 03:33:20;;;;;;;12.45;2.53;;;9.20;99.90;;;;;;5111117;27;20068;-47
2023/03/10 03:35:46;;;;;;;14.00;2.50;;;9.20;99.90;;;;;;5108723;28;20092;-51
2023/03/10 03:38:12;;;;;;;11.20;2.60;;;9.20;99.90;;;;;;5118079;27;20024;-48
2023/03/10 03:40:38;;;;;;;11.85;2.90;;;9.20;99.90;;;;;;5117324;27;20140;-48
2023/03/10 03:43:04;;;;;;;14.30;2.78;;;9.20;99.90;;;;;;5099686;27;20024;-54
2023/03/10 03:45:31;;;;;;;12.75;2.47;;;9.20;99.90;;;;;;5114090;28;20051;-52
2023/03/10 03:47:57;;;;;;;10.45;2.60;;;9.20;99.90;;;;;;5113853;27;20023;-48
2023/03/10 03:50:24;;;;;;;10.13;2.58;;;9.20;99.90;;;;;;5113684;28;20028;-50
2023/03/10 03:52:50;;;;;;;13.20;2.95;;;9.20;99.90;;;;;;5117400;27;20030;-46
2023/03/10 03:55:17;;;;;;;13.00;3.03;;;9.20;99.90;;;;;;5112281;28;20510;-45
2023/03/10 03:57:43;;;;;;;14.52;3.35;;;9.10;99.90;;;;;;5116641;27;20454;-53
2023/03/10 04:00:14;;;;;;;12.73;3.20;;;9.20;99.90;;;;;;5099195;28;20061;-48
2023/03/10 04:02:39;;;;;;;18.52;4.07;;;9.20;99.90;;;;;;5113461;28;20022;-49
2023/03/10 04:05:06;;;;;;;13.38;3.35;;;9.20;99.90;;;;;;5112077;28;20383;-49
2023/03/10 04:07:32;;;;;;;12.75;3.95;;;9.20;99.90;;;;;;5113407;28;20028;-54
2023/03/10 04:09:57;;;;;;;15.52;4.65;;;9.20;99.90;;;;;;5113358;28;20032;-47
2023/03/10 04:12:25;;;;;;;13.23;4.30;;;9.20;99.90;;;;;;5113071;28;20099;-56
2023/03/10 04:14:51;;;;;;;13.70;3.92;;;9.20;99.90;;;;;;5113225;28;20040;-52
2023/03/10 04:17:17;;;;;;;17.25;4.13;;;9.20;99.90;;;;;;5113124;28;20041;-48
2023/03/10 04:19:42;;;;;;;18.92;4.88;;;9.20;99.90;;;;;;5108737;27;20088;-45
2023/03/10 04:22:08;;;;;;;16.80;4.70;;;9.20;99.90;;;;;;5116036;27;20031;-48
2023/03/10 04:24:36;;;;;;;16.45;4.28;;;9.20;99.90;;;;;;5106084;27;20035;-51
2023/03/10 04:27:02;;;;;;;9.38;3.80;;;9.20;99.90;;;;;;5125127;27;20057;-44
2023/03/10 04:29:27;;;;;;;8.85;3.53;;;9.20;99.90;;;;;;5110405;27;20403;-44
2023/03/10 04:31:53;;;;;;;15.30;3.95;;;9.10;99.90;;;;;;5107200;27;20024;-45
2023/03/10 04:34:19;;;;;;;11.27;3.88;;;9.10;99.90;;;;;;5101208;27;20225;-44
2023/03/10 04:36:44;;;;;;;9.80;3.65;;;9.20;99.90;;;;;;5112697;28;20047;-52
2023/03/10 04:39:10;;;;;;;11.20;4.10;;;9.20;99.90;;;;;;5112894;28;20031;-51
2023/03/10 04:41:36;;;;;;;8.15;3.70;;;9.20;99.90;;;;;;5098657;28;20026;-51
2023/03/10 04:44:02;;;;;;;11.10;3.78;;;9.20;99.90;;;;;;5112737;28;20031;-53
2023/03/10 04:46:30;;;;;;;9.65;3.72;;;9.20;99.90;;;;;;5112961;28;20456;-51
2023/03/10 04:48:56;;;;;;;13.68;4.60;;;9.20;99.90;;;;;;5112519;28;20107;-51
2023/03/10 04:51:21;;;;;;;13.55;5.03;;;9.20;99.90;;;;;;5112272;28;20062;-46
2023/03/10 04:53:47;;;;;;;14.32;4.10;;;9.20;99.90;;;;;;5111905;28;20392;-50
2023/03/10 04:56:13;;;;;;;8.63;3.28;;;9.20;99.90;;;;;;5110422;27;20048;-43
2023/03/10 04:58:38;;;;;;;10.02;3.38;;;9.20;99.90;;;;;;5112562;27;20103;-44
2023/03/10 05:01:09;;;;;;;8.70;3.88;;;9.20;99.90;;;;;;5112551;28;20046;-43
2023/03/10 05:03:35;;;;;;;9.23;3.63;;;9.20;99.90;;;;;;5112272;28;20096;-43
2023/03/10 05:06:00;;;;;;;12.00;4.00;;;9.20;99.90;;;;;;5112665;28;20472;-45
2023/03/10 05:08:26;;;;;;;9.18;3.72;;;9.20;99.90;;;;;;5112100;28;20084;-49
2023/03/10 05:10:51;;;;;;;9.50;3.92;;;9.20;99.90;;;;;;5112187;28;20107;-49
2023/03/10 05:13:17;;;;;;;9.32;3.45;;;9.20;99.90;;;;;;5112171;27;20065;-48
2023/03/10 05:15:43;;;;;;;7.75;3.30;;;9.20;99.90;;;;;;5112238;28;20028;-46
2023/03/10 05:18:10;;;;;;;9.80;3.75;;;9.20;99.90;;;;;;5112020;28;20027;-47
2023/03/10 05:20:37;;;;;;;7.22;2.67;;;9.20;99.90;;;;;;5112148;28;20028;-44
2023/03/10 05:23:02;;;;;;;8.07;2.85;;;9.20;99.90;;;;;;5111843;28;20066;-44
2023/03/10 05:25:28;;;;;;;8.52;3.42;;;9.20;99.90;;;;;;5112001;28;20047;-49
2023/03/10 05:27:54;;;;;;;7.63;2.78;;;9.20;99.90;;;;;;5119549;27;20395;-50
2023/03/10 05:30:20;;;;;;;8.85;2.95;;;9.20;99.90;;;;;;5111718;28;20084;-50
2023/03/10 05:32:45;;;;;;;8.65;2.70;;;9.20;99.90;;;;;;5108322;28;20024;-45
2023/03/10 05:35:12;;;;;;;6.00;2.70;;;9.20;99.90;;;;;;5100660;28;20060;-43
2023/03/10 05:37:39;;;;;;;4.68;2.45;;;9.20;99.90;;;;;;5111552;28;20027;-43
2023/03/10 05:40:09;;;;;;;6.07;2.50;;;9.10;99.90;;;;;;5110312;28;20679;-49
2023/03/10 05:42:34;;;;;;;8.88;2.72;;;9.20;99.90;;;;;;5111463;28;20028;-50
2023/03/10 05:45:00;;;;;;;7.60;2.60;;;9.10;99.90;;;;;;5111676;28;20037;-45
2023/03/10 05:47:26;;;;;;;7.00;2.22;;;9.20;99.90;;;;;;5111397;28;20027;-51
2023/03/10 05:49:51;;;;;;;6.07;1.98;;;9.10;99.90;;;;;;5111370;28;20059;-50
2023/03/10 05:52:17;;;;;;;8.77;2.30;;;9.10;99.90;;;;;;5111526;28;20453;-48
2023/03/10 05:54:43;;;;;;;6.00;2.03;;;9.10;99.90;;;;;;5111371;28;20033;-48
2023/03/10 05:57:08;;;;;;;5.90;2.30;;;9.10;99.90;;;;;;5112506;27;20020;-48
2023/03/10 05:59:34;;;;;;;6.68;1.85;;;9.10;99.90;;;;;;5111436;28;20031;-53
2023/03/10 06:02:00;;;;;;;7.13;2.10;;;9.10;99.90;;;;;;5097011;28;20016;-46
2023/03/10 06:04:30;;;;;;;6.15;2.40;;;9.20;99.90;;;;;;5111558;28;20143;-50
2023/03/10 06:06:59;;;;;;;7.35;2.45;;;9.20;99.90;;;;;;5109407;28;20731;-47
2023/03/10 06:09:29;;;;;;;4.90;2.15;;;9.20;99.90;;;;;;5111233;28;20049;-54
2023/03/10 06:11:55;;;;;;;3.38;1.70;;;9.20;99.90;;;;;;5111058;28;20031;-54
2023/03/10 06:14:21;;;;;;;6.20;2.00;;;9.20;99.90;;;;;;5111248;28;20053;-51
2023/03/10 06:16:50;;;;;;;5.13;1.98;;;9.20;99.90;;;;;;5110957;28;20024;-53
2023/03/10 06:19:22;;;;;;;6.47;2.10;;;9.20;99.90;;;;;;5111393;28;20042;-44
2023/03/10 06:21:48;;;;;;;8.40;3.83;;;9.20;99.90;;;;;;5110802;28;20491;-43
2023/03/10 06:24:15;;;;;;;8.90;2.70;;;9.10;99.90;;;;;;5110931;28;20501;-43
2023/03/10 06:26:41;;;;;;;9.02;3.22;;;9.20;99.90;;;;;;5114928;28;20038;-46
2023/03/10 06:29:07;;;;;;;9.88;3.40;;;9.20;99.90;;;;;;5111386;28;20036;-54
2023/03/10 06:31:34;;;;;;;6.72;3.20;;;9.20;99.90;;;;;;5111077;28;20107;-48
2023/03/10 06:33:59;;;;;;;8.65;3.05;;;9.20;99.90;;;;;;5097133;28;20469;-47
2023/03/10 06:36:31;;;;;;;7.50;3.38;;;9.20;99.90;;;;;;5110013;28;20051;-45
2023/03/10 06:38:57;;;;;;;7.80;4.97;;;9.20;99.90;;;;;;5110776;28;20028;-50
2023/03/10 06:41:23;;;;;;;13.18;7.63;;;9.10;99.90;;;;;;5110620;28;20041;-49
2023/03/10 06:43:49;;;;;;;13.73;7.50;;;9.10;99.90;;;;;;5110674;28;20101;-48
2023/03/10 06:46:15;;;;;;;12.32;7.53;;;9.00;99.90;;;;;;5110497;28;20066;-48
2023/03/10 06:48:42;;;;;;;15.07;8.10;;;8.90;99.90;;;;;;5109424;28;20440;-47
2023/03/10 06:51:17;;;;;;;14.57;8.88;;;8.90;99.90;;;;;;5110584;28;20016;-46
2023/03/10 06:53:43;;;;;;;15.75;10.10;;;8.80;99.90;;;;;;5110804;28;20028;-45
2023/03/10 06:56:14;;;;;;;16.45;10.35;;;8.70;99.90;;;;;;5114739;28;20011;-50
2023/03/10 06:58:40;;;;;;;16.52;10.20;;;8.60;99.90;;;;;;5107915;28;20032;-48
2023/03/10 07:01:07;;;;;;;17.92;11.10;;;8.50;99.90;;;;;;5110704;28;20073;-49
2023/03/10 07:03:34;;;;;;;16.00;9.82;;;8.40;99.90;;;;;;5110618;28;20492;-50
2023/03/10 07:05:59;;;;;;;10.40;6.55;;;8.40;99.90;;;;;;5109195;28;20114;-52
2023/03/10 07:08:27;;;;;;;8.50;5.30;;;8.30;99.90;;;;;;5110272;28;20062;-52
2023/03/10 07:10:52;;;;;;;4.72;2.80;;;8.10;99.90;;;;;;5110366;28;20497;-50
2023/03/10 07:13:18;;;;;;;4.53;2.53;;;7.90;99.90;;;;;;5110394;28;20099;-47
2023/03/10 07:15:45;;;;;;;2.35;1.70;;;7.70;99.90;;;;;;5110489;28;20058;-52
2023/03/10 07:18:11;;;;;;;2.97;1.70;;;7.60;99.90;;;;;;5112072;28;20783;-51
2023/03/10 07:20:41;;;;;;;5.03;2.30;;;7.30;99.90;;;;;;5114258;28;20025;-47
2023/03/10 07:23:07;;;;;;;3.63;2.10;;;7.20;99.90;;;;;;5114276;28;20015;-47
2023/03/10 07:25:37;;;;;;;4.28;2.70;;;7.20;99.90;;;;;;5114012;28;20399;-49
2023/03/10 07:28:04;;;;;;;4.18;2.50;;;7.10;99.90;;;;;;5122984;27;20108;-51
2023/03/10 07:30:31;;;;;;;4.97;2.67;;;7.10;99.90;;;;;;5113904;28;20043;-47
2023/03/10 07:32:57;;;;;;;3.25;2.15;;;7.00;99.90;;;;;;5108472;28;20059;-43
2023/03/10 07:35:22;;;;;;;3.42;2.20;;;7.00;99.90;;;;;;5104590;28;20071;-48
2023/03/10 07:37:48;;;;;;;3.95;2.40;;;6.90;99.90;;;;;;5113925;28;20060;-46
2023/03/10 07:40:14;;;;;;;4.25;2.33;;;6.90;99.90;;;;;;5113924;28;20026;-49
2023/03/10 07:42:42;;;;;;;4.40;2.65;;;6.80;99.90;;;;;;5113699;28;20079;-44
2023/03/10 07:45:08;;;;;;;3.30;2.17;;;6.70;99.90;;;;;;5113619;27;20139;-47
2023/03/10 07:47:34;;;;;;;3.47;2.30;;;6.70;99.90;;;;;;5113835;28;20124;-50
2023/03/10 07:49:59;;;;;;;4.30;2.60;;;6.70;99.90;;;;;;5113523;28;20486;-49
2023/03/10 07:52:27;;;;;;;4.97;2.50;;;6.70;99.90;;;;;;5112457;28;20093;-43
2023/03/10 07:54:52;;;;;;;2.20;1.70;;;6.60;99.90;;;;;;5113654;28;20047;-50
2023/03/10 07:57:18;;;;;;;2.05;1.60;;;6.60;99.90;;;;;;5117480;27;20132;-49
2023/03/10 07:59:44;;;;;;;2.13;1.48;;;6.50;99.90;;;;;;5113505;28;20027;-43
2023/03/10 08:02:13;;;;;;;1.70;1.25;;;6.50;99.90;;;;;;5114567;27;20107;-49
2023/03/10 08:04:39;;;;;;;1.30;1.00;;;6.40;99.90;;;;;;5113522;28;20031;-48
2023/03/10 08:07:05;;;;;;;1.50;1.08;;;6.30;99.90;;;;;;5113334;28;20034;-44
2023/03/10 08:09:31;;;;;;;1.75;1.05;;;6.20;99.90;;;;;;5113322;28;20118;-47
2023/03/10 08:11:57;;;;;;;1.30;0.93;;;6.30;99.90;;;;;;5112685;28;20051;-43
2023/03/10 08:14:23;;;;;;;2.25;1.30;;;6.30;99.90;;;;;;5113266;28;20027;-51
2023/03/10 08:16:50;;;;;;;1.55;1.30;;;6.30;99.90;;;;;;5113111;28;20038;-44
2023/03/10 08:19:16;;;;;;;3.90;1.35;;;6.20;99.90;;;;;;5113037;28;20528;-44
2023/03/10 08:21:42;;;;;;;4.15;1.50;;;6.30;99.90;;;;;;5113022;28;20027;-43
2023/03/10 08:24:08;;;;;;;1.20;1.08;;;6.30;99.90;;;;;;5113419;28;20390;-44
2023/03/10 08:26:35;;;;;;;2.05;1.40;;;6.30;99.90;;;;;;5113026;28;20094;-47
2023/03/10 08:29:00;;;;;;;2.45;1.50;;;6.30;99.90;;;;;;5112591;27;20031;-47
2023/03/10 08:31:26;;;;;;;1.77;1.10;;;6.30;99.90;;;;;;5115685;27;20596;-46
2023/03/10 08:33:56;;;;;;;1.25;1.02;;;6.30;99.90;;;;;;5115889;27;20043;-44
2023/03/10 08:36:22;;;;;;;;;;;6.30;99.90;;;;;;5113301;28;20036;-44
2023/03/10 08:38:50;;;;;;;3.80;3.30;;;6.30;99.90;;;;;;5113295;28;19910;-45
2023/03/10 08:41:23;;;;;;;2.05;1.13;;;6.30;99.90;;;;;;5112590;28;20057;-51
2023/03/10 08:43:50;;;;;;;2.03;0.95;;;6.30;99.90;;;;;;5112949;27;20484;-50
2023/03/10 08:46:17;;;;;;;1.23;0.95;;;6.30;99.90;;;;;;5115766;27;20020;-46
2023/03/10 08:48:42;;;;;;;1.13;0.90;;;6.40;99.90;;;;;;5114146;27;20032;-49
2023/03/10 08:51:08;;;;;;;0.75;0.73;;;6.40;99.90;;;;;;5114545;27;20043;-51
2023/03/10 08:53:35;;;;;;;1.85;0.80;;;6.40;99.90;;;;;;5114253;27;20035;-50
2023/03/10 08:56:01;;;;;;;2.95;1.27;;;6.30;99.90;;;;;;5114394;27;20061;-47
2023/03/10 08:58:27;;;;;;;3.28;1.30;;;6.30;99.90;;;;;;5112394;28;20016;-51
2023/03/10 09:00:52;;;;;;;3.50;1.42;;;6.30;99.90;;;;;;5123648;27;20479;-44
2023/03/10 09:03:19;;;;;;;2.10;0.98;;;6.30;99.90;;;;;;5118702;27;20090;-48
2023/03/10 09:05:44;;;;;;;1.02;0.80;;;6.10;99.90;;;;;;5107881;27;20043;-46
2023/03/10 09:08:10;;;;;;;0.70;0.60;;;6.00;99.90;;;;;;5112099;27;20051;-47
2023/03/10 09:10:38;;;;;;;2.20;0.73;;;6.20;99.90;;;;;;5115100;27;20543;-47
2023/03/10 09:13:04;;;;;;;0.80;0.55;;;6.30;99.90;;;;;;5117931;27;20102;-44
2023/03/10 09:15:30;;;;;;;1.00;0.70;;;6.30;99.90;;;;;;5121281;27;20124;-53
2023/03/10 09:17:55;;;;;;;0.82;0.60;;;6.30;99.90;;;;;;5112300;27;20406;-44
2023/03/10 09:20:24;;;;;;;0.70;0.57;;;6.30;99.90;;;;;;5113078;27;20440;-49
2023/03/10 09:22:55;;;;;;;0.88;0.70;;;6.30;99.90;;;;;;5096911;28;20081;-49
2023/03/10 09:25:21;;;;;;;0.68;0.68;;;6.20;99.90;;;;;;5095143;28;20074;-47
2023/03/10 09:27:47;;;;;;;0.75;0.60;;;6.00;99.90;;;;;;5104642;27;20032;-49
2023/03/10 09:30:13;;;;;;;0.60;0.60;;;5.90;99.90;;;;;;5101763;27;20503;-46
2023/03/10 09:32:39;;;;;;;0.50;0.50;;;5.90;99.90;;;;;;5107683;28;20087;-44
2023/03/10 09:35:05;;;;;;;1.02;0.75;;;6.00;99.90;;;;;;5103276;28;20508;-49
2023/03/10 09:37:31;;;;;;;1.80;1.02;;;6.00;99.90;;;;;;5117527;27;20023;-48
2023/03/10 09:39:58;;;;;;;0.50;0.50;;;6.10;99.90;;;;;;5114166;27;20054;-45
2023/03/10 09:42:29;;;;;;;1.00;0.60;;;6.10;99.90;;;;;;5115753;27;20051;-44
2023/03/10 09:45:09;;;;;;;0.90;0.63;;;6.10;99.90;;;;;;5115011;27;20019;-51
2023/03/10 09:47:52;;;;;;;1.20;0.70;;;6.00;99.90;;;;;;5116648;27;20028;-44
2023/03/10 09:50:39;;;;;;;1.13;0.68;;;5.70;99.90;;;;;;5104682;27;20028;-50
2023/03/10 09:53:38;;;;;;;1.05;0.85;;;5.60;99.90;;;;;;5108238;27;20051;-50
2023/03/10 09:56:16;;;;;;;1.90;0.80;;;5.60;99.90;;;;;;5120990;27;20505;-52
2023/03/10 09:58:46;;;;;;;1.05;0.70;;;5.60;99.90;;;;;;5098840;28;20023;-46
2023/03/10 10:01:18;;;;;;;1.00;0.65;;;5.50;99.90;;;;;;5112721;27;20164;-45
2023/03/10 10:03:59;;;;;;;1.33;0.63;;;5.70;99.90;;;;;;5110774;27;20022;-53
2023/03/10 10:06:32;;;;;;;0.70;0.60;;;5.50;99.90;;;;;;5111237;28;20027;-46
2023/03/10 10:09:04;;;;;;;1.33;0.65;;;5.70;99.90;;;;;;5109747;27;20430;-50
2023/03/10 10:11:29;;;;;;;0.70;0.50;;;5.90;99.90;;;;;;5111167;28;20024;-44
2023/03/10 10:14:16;;;;;;;1.42;0.70;;;5.90;99.90;;;;;;5111766;27;20023;-48
2023/03/10 10:17:15;;;;;;;0.77;0.60;;;6.10;99.90;;;;;;5111169;28;20034;-50
2023/03/10 10:19:44;;;;;;;0.88;0.70;;;6.00;99.90;;;;;;5109878;28;20019;-47
2023/03/10 10:22:19;;;;;;;2.30;0.70;;;5.90;99.90;;;;;;5108944;28;20015;-51
2023/03/10 10:25:06;;;;;;;1.50;0.65;;;6.00;99.90;;;;;;5110056;27;20024;-49
2023/03/10 10:27:32;;;;;;;1.35;0.80;;;6.30;99.90;;;;;;5103343;28;20035;-47
2023/03/10 10:29:58;;;;;;;1.95;0.70;;;6.40;99.90;;;;;;5109942;28;20089;-45
2023/03/10 10:32:24;;;;;;;1.73;1.10;;;6.10;99.90;;;;;;5110419;28;20027;-52
2023/03/10 10:34:50;;;;;;;0.60;0.60;;;6.00;99.90;;;;;;5105393;28;20047;-44
2023/03/10 10:37:41;;;;;;;3.25;1.23;;;5.70;99.90;;;;;;5110777;28;20028;-47
2023/03/10 10:40:29;;;;;;;4.63;2.22;;;5.60;99.90;;;;;;5098510;28;20028;-44
2023/03/10 10:42:59;;;;;;;8.13;3.85;;;5.70;99.90;;;;;;5110857;28;20035;-44
2023/03/10 10:45:32;;;;;;;8.00;2.03;;;5.70;99.90;;;;;;5110463;28;20106;-49
2023/03/10 10:47:58;;;;;;;6.05;3.45;;;5.80;99.90;;;;;;5101696;28;20039;-48
2023/03/10 10:50:30;;;;;;;2.03;1.10;;;5.90;99.90;;;;;;5101943;28;20031;-54
2023/03/10 10:53:19;;;;;;;0.68;0.63;;;5.90;99.90;;;;;;5094878;28;20077;-41
2023/03/10 10:56:11;;;;;;;2.83;1.50;;;6.00;99.90;;;;;;5110891;27;20016;-45
2023/03/10 10:58:39;;;;;;;1.63;0.80;;;6.10;99.90;;;;;;5112801;28;20031;-45
2023/03/10 11:01:06;;;;;;;1.67;0.90;;;6.00;99.90;;;;;;5114684;28;20028;-50
2023/03/10 11:03:49;;;;;;;0.82;0.50;;;6.00;99.90;;;;;;5126629;27;20027;-47
2023/03/10 11:06:20;;;;;;;2.20;0.80;;;5.90;99.90;;;;;;5114707;27;20064;-46
2023/03/10 11:08:49;;;;;;;0.98;0.70;;;5.90;99.90;;;;;;5114384;27;20023;-55
2023/03/10 11:11:24;;;;;;;0.98;0.80;;;6.00;99.90;;;;;;5113207;28;20027;-52
2023/03/10 11:14:14;;;;;;;1.17;0.70;;;6.00;99.90;;;;;;5114335;27;20031;-48
2023/03/10 11:17:20;;;;;;;1.13;0.60;;;6.10;99.90;;;;;;5114315;28;20023;-51
2023/03/10 11:20:12;;;;;;;1.17;0.60;;;7.50;99.90;;;;;;5085292;27;20029;-52
2023/03/10 11:22:45;;;;;;;3.22;0.70;;;8.70;99.90;;;;;;5114341;27;20077;-47
2023/03/10 11:25:30;;;;;;;2.47;0.60;;;8.60;99.90;;;;;;5114139;27;20476;-49
2023/03/10 11:28:15;;;;;;;0.70;0.60;;;8.40;99.90;;;;;;5113824;27;20024;-43
2023/03/10 11:30:55;;;;;;;0.50;0.50;;;8.60;99.90;;;;;;5112045;27;20118;-43
2023/03/10 11:33:42;;;;;;;1.20;0.50;;;9.30;99.90;;;;;;5111778;27;20577;-44
2023/03/10 11:36:29;;;;;;;1.13;0.77;;;10.40;99.90;;;;;;5114179;28;20059;-50
2023/03/10 11:39:26;;;;;;;0.93;0.70;;;10.60;99.30;;;;;;5105768;28;20028;-52
2023/03/10 11:42:20;;;;;;;1.95;0.60;;;11.70;96.70;;;;;;5095622;27;20063;-44
2023/03/10 11:44:58;;;;;;;0.88;0.70;;;11.70;94.90;;;;;;5105705;28;20028;-44
2023/03/10 11:47:43;;;;;;;0.90;0.70;;;10.60;93.80;;;;;;5113810;28;20088;-51
2023/03/10 11:50:31;;;;;;;2.10;1.20;;;10.40;95.40;;;;;;5112510;27;20112;-52
2023/03/10 11:53:05;;;;;;;1.02;0.70;;;9.80;94.90;;;;;;5113866;28;20016;-43
2023/03/10 11:55:31;;;;;;;1.92;1.25;;;9.40;95.60;;;;;;5114420;27;20110;-44
2023/03/10 11:58:00;;;;;;;1.50;0.90;;;9.20;96.10;;;;;;5124640;27;20026;-45
2023/03/10 12:00:40;;;;;;;4.60;0.93;;;9.00;96.90;;;;;;5113512;28;20055;-43
2023/03/10 12:03:08;;;;;;;0.88;0.70;;;8.40;98.10;;;;;;5114198;27;20051;-44
2023/03/10 12:05:48;;;;;;;1.25;0.90;;;7.90;98.60;;;;;;5117806;27;20091;-44
2023/03/10 12:08:15;;;;;;;1.73;0.90;;;7.80;99.90;;;;;;5116959;27;20122;-46
2023/03/10 12:10:42;;;;;;;3.22;0.93;;;7.50;99.90;;;;;;5101372;28;20522;-45
2023/03/10 12:13:28;;;;;;;1.73;0.77;;;7.40;99.90;;;;;;5102638;27;20028;-51
2023/03/10 12:15:59;;;;;;;3.08;1.50;;;7.10;99.90;;;;;;5100497;27;20028;-51
2023/03/10 12:18:26;;;;;;;2.55;1.50;;;7.10;99.90;;;;;;5100338;28;20020;-44
2023/03/10 12:21:15;;;;;;;1.33;1.17;;;6.90;99.90;;;;;;5102802;28;20524;-43
2023/03/10 12:23:46;;;;;;;1.98;0.90;;;6.80;99.90;;;;;;5108549;27;20031;-51
2023/03/10 12:26:12;;;;;;;0.98;0.70;;;6.70;99.90;;;;;;5099122;28;20032;-50
2023/03/10 12:28:38;;;;;;;1.95;1.25;;;6.50;99.90;;;;;;5096221;28;20020;-46
2023/03/10 12:31:30;;;;;;;2.88;2.00;;;6.60;99.90;;;;;;5105654;28;20051;-50
2023/03/10 12:34:23;;;;;;;1.48;1.00;;;6.60;99.90;;;;;;5098157;27;20514;-51
2023/03/10 12:36:54;;;;;;;3.08;0.90;;;6.50;99.90;;;;;;5096807;28;20048;-47
2023/03/10 12:39:24;;;;;;;1.50;0.75;;;6.50;99.90;;;;;;5098058;27;20028;-49
2023/03/10 12:41:53;;;;;;;2.03;1.20;;;6.60;99.90;;;;;;5094861;28;20016;-48
2023/03/10 12:44:22;;;;;;;;;;;6.50;99.90;;;;;;5095485;28;20384;-51
2023/03/10 12:47:21;;;;;;;2.95;1.60;;;6.60;99.90;;;;;;5094017;28;19904;-51
2023/03/10 12:50:11;;;;;;;2.00;1.17;;;6.70;99.90;;;;;;5095186;28;20110;-45
2023/03/10 12:52:43;;;;;;;2.35;1.27;;;6.70;99.90;;;;;;5092739;28;20028;-48
2023/03/10 12:55:21;;;;;;;1.92;1.30;;;6.70;99.90;;;;;;5096288;28;20108;-51
2023/03/10 12:58:22;;;;;;;2.97;1.70;;;6.60;99.90;;;;;;5094496;28;20498;-43
2023/03/10 13:00:47;;;;;;;2.20;1.40;;;6.30;99.90;;;;;;5095372;27;20493;-46
2023/03/10 13:03:37;;;;;;;2.85;1.60;;;6.20;99.90;;;;;;5098219;27;20107;-45
2023/03/10 13:06:19;;;;;;;3.10;1.60;;;6.40;99.90;;;;;;5092367;27;20059;-45